createdAt,value
2022-10-12T00:01:20.185Z,6.97
2022-10-12T00:06:51.394Z,8.15
2022-10-12T00:12:22.310Z,6.47
2022-10-12T00:17:53.920Z,8.10
2022-10-12T00:23:25.074Z,6.88
2022-10-12T00:28:58.353Z,6.43
2022-10-12T00:34:29.234Z,8.50
2022-10-12T00:40:00.236Z,6.65
2022-10-12T00:45:32.640Z,6.47
2022-10-12T00:51:04.036Z,7.78
2022-10-12T00:56:37.350Z,7.18
2022-10-12T01:02:08.955Z,6.47
2022-10-12T01:07:41.142Z,6.05
2022-10-12T01:13:12.835Z,6.38
2022-10-12T01:18:56.831Z,7.32
2022-10-12T01:30:17.953Z,7.25
2022-10-12T01:36:12.559Z,6.82
2022-10-12T01:42:03.197Z,9.68
2022-10-12T01:47:34.340Z,7.72
2022-10-12T01:53:39.234Z,7.65
2022-10-12T01:59:31.630Z,8.65
2022-10-12T02:05:02.317Z,6.97
2022-10-12T02:11:12.761Z,7.82
2022-10-12T02:16:52.369Z,8.00
2022-10-12T02:22:26.034Z,8.10
2022-10-12T02:28:05.463Z,6.93
2022-10-12T02:34:00.052Z,7.55
2022-10-12T02:39:43.936Z,8.57
2022-10-12T02:45:15.975Z,7.53
2022-10-12T02:50:47.634Z,7.20
2022-10-12T02:56:18.627Z,8.23
2022-10-12T03:01:49.699Z,9.60
2022-10-12T03:07:20.885Z,6.57
2022-10-12T03:12:51.963Z,5.90
2022-10-12T03:18:23.024Z,7.05
2022-10-12T03:23:53.781Z,6.55
2022-10-12T03:29:24.805Z,6.15
2022-10-12T03:34:56.294Z,6.50
2022-10-12T03:40:27.691Z,7.03
2022-10-12T03:45:58.590Z,7.28
2022-10-12T03:51:29.935Z,10.48
2022-10-12T03:57:00.963Z,6.82
2022-10-12T04:02:31.997Z,7.97
2022-10-12T04:08:03.112Z,6.93
2022-10-12T04:13:34.246Z,5.95
2022-10-12T04:19:05.032Z,6.47
2022-10-12T04:24:36.201Z,6.07
2022-10-12T04:30:07.955Z,7.65
2022-10-12T04:35:39.117Z,6.72
2022-10-12T04:41:10.401Z,6.55
2022-10-12T04:46:41.598Z,7.18
2022-10-12T04:52:12.907Z,6.95
2022-10-12T04:57:44.087Z,7.03
2022-10-12T05:03:15.569Z,7.35
2022-10-12T05:08:46.368Z,8.00
2022-10-12T05:14:17.092Z,9.43
2022-10-12T05:19:47.940Z,8.23
2022-10-12T05:25:19.938Z,10.02
2022-10-12T05:30:52.174Z,8.15
2022-10-12T05:36:22.911Z,6.22
2022-10-12T05:41:55.993Z,6.43
2022-10-12T05:47:27.184Z,8.93
2022-10-12T05:52:58.188Z,7.40
2022-10-12T05:58:30.797Z,8.85
2022-10-12T06:04:01.844Z,8.75
2022-10-12T06:09:32.763Z,7.95
2022-10-12T06:15:04.000Z,9.20
2022-10-12T06:20:35.008Z,8.07
2022-10-12T06:26:06.145Z,9.82
2022-10-12T06:31:38.554Z,8.60
2022-10-12T06:37:20.388Z,7.35
2022-10-12T06:43:02.947Z,7.15
2022-10-12T06:48:33.701Z,9.27
2022-10-12T06:54:04.509Z,8.25
2022-10-12T06:59:35.634Z,11.02
2022-10-12T07:05:07.745Z,9.48
2022-10-12T07:10:38.875Z,10.48
2022-10-12T07:16:10.069Z,9.82
2022-10-12T07:21:40.874Z,10.50
2022-10-12T07:27:11.936Z,8.75
2022-10-12T07:32:44.682Z,8.63
2022-10-12T07:38:15.570Z,8.52
2022-10-12T07:43:46.571Z,9.63
2022-10-12T07:49:18.406Z,10.75
2022-10-12T07:54:49.579Z,10.65
2022-10-12T08:00:22.336Z,10.57
2022-10-12T08:05:53.104Z,10.73
2022-10-12T08:11:24.119Z,8.70
2022-10-12T08:16:54.961Z,7.95
2022-10-12T08:22:25.922Z,11.18
2022-10-12T08:27:58.428Z,9.45
2022-10-12T08:33:30.233Z,10.32
2022-10-12T08:39:01.830Z,9.23
2022-10-12T08:44:40.910Z,8.18
2022-10-12T08:50:18.735Z,9.18
2022-10-12T08:55:50.196Z,8.75
2022-10-12T09:01:37.483Z,9.13
2022-10-12T09:07:23.898Z,12.65
2022-10-12T09:13:13.582Z,8.98
2022-10-12T09:18:47.202Z,7.60
2022-10-12T09:24:26.520Z,9.95
2022-10-12T09:30:02.458Z,8.20
2022-10-12T09:35:34.261Z,8.63
2022-10-12T09:41:05.720Z,7.85
2022-10-12T09:47:04.577Z,6.93
2022-10-12T09:52:36.787Z,7.82
2022-10-12T09:58:18.245Z,7.63
2022-10-12T10:03:52.455Z,6.43
2022-10-12T10:09:34.064Z,7.05
2022-10-12T10:15:05.665Z,7.43
2022-10-12T10:20:41.010Z,7.53
2022-10-12T10:32:24.141Z,6.72
2022-10-12T10:37:56.547Z,7.78
2022-10-12T10:43:29.765Z,7.57
2022-10-12T10:49:06.705Z,7.47
2022-10-12T10:54:41.202Z,7.00
2022-10-12T11:06:33.805Z,7.90
2022-10-12T11:12:30.233Z,6.68
2022-10-12T11:18:14.765Z,7.05
2022-10-12T11:23:52.496Z,7.13
2022-10-12T11:29:24.064Z,6.43
2022-10-12T11:35:00.413Z,6.93
2022-10-12T11:41:02.526Z,5.63
2022-10-12T11:46:41.157Z,6.05
2022-10-12T11:52:12.663Z,6.72
2022-10-12T11:57:44.123Z,6.72
2022-10-12T12:03:29.312Z,6.22
2022-10-12T12:09:03.204Z,4.68
2022-10-12T12:14:34.077Z,5.03
2022-10-12T12:20:47.956Z,7.00
2022-10-12T12:26:21.452Z,8.07
2022-10-12T12:31:59.615Z,8.07
2022-10-12T12:37:33.532Z,4.40
2022-10-12T12:43:41.601Z,4.50
2022-10-12T12:49:39.180Z,6.03
2022-10-12T12:55:16.563Z,7.78
2022-10-12T13:01:12.003Z,9.02
2022-10-12T13:06:55.495Z,4.65
2022-10-12T13:12:26.375Z,5.63
2022-10-12T13:18:46.307Z,5.68
2022-10-12T13:24:51.166Z,5.57
2022-10-12T13:30:35.010Z,6.80
2022-10-12T13:41:36.891Z,4.38
2022-10-12T13:47:43.868Z,4.82
2022-10-12T13:53:16.792Z,4.97
2022-10-12T13:58:48.114Z,4.57
2022-10-12T14:04:18.840Z,5.13
2022-10-12T14:09:55.054Z,4.38
2022-10-12T14:15:30.917Z,5.25
2022-10-12T14:21:27.050Z,5.47
2022-10-12T14:27:04.871Z,4.95
2022-10-12T14:32:38.861Z,5.72
2022-10-12T14:38:37.428Z,5.28
2022-10-12T14:44:17.820Z,6.43
2022-10-12T14:49:50.571Z,4.75
2022-10-12T14:55:25.253Z,3.80
2022-10-12T15:00:57.639Z,6.97
2022-10-12T15:06:28.915Z,4.78
2022-10-12T15:12:00.053Z,5.18
2022-10-12T15:17:31.090Z,4.78
2022-10-12T15:23:03.252Z,5.40
2022-10-12T15:28:34.341Z,5.85
2022-10-12T15:34:11.913Z,3.85
2022-10-12T15:39:43.147Z,7.35
2022-10-12T15:45:27.077Z,6.10
2022-10-12T15:50:58.275Z,5.68
2022-10-12T15:56:29.742Z,7.25
2022-10-12T16:02:00.869Z,5.03
2022-10-12T16:07:32.111Z,5.40
2022-10-12T16:13:05.886Z,6.13
2022-10-12T16:18:37.091Z,5.85
2022-10-12T16:24:08.287Z,4.80
2022-10-12T16:29:39.927Z,4.57
2022-10-12T16:35:12.478Z,6.68
2022-10-12T16:40:43.682Z,6.90
2022-10-12T16:46:14.613Z,5.78
2022-10-12T16:51:45.689Z,6.63
2022-10-12T16:57:16.879Z,9.05
2022-10-12T17:02:48.327Z,7.20
2022-10-12T17:08:19.550Z,6.22
2022-10-12T17:13:50.755Z,7.35
2022-10-12T17:19:26.016Z,4.80
2022-10-12T17:24:57.126Z,5.75
2022-10-12T17:30:28.368Z,7.28
2022-10-12T17:35:59.605Z,6.70
2022-10-12T17:41:30.696Z,7.25
2022-10-12T17:47:01.725Z,9.57
2022-10-12T17:52:37.871Z,4.53
2022-10-12T17:58:08.681Z,5.07
2022-10-12T18:03:42.376Z,5.00
2022-10-12T18:09:13.892Z,4.95
2022-10-12T18:14:45.224Z,4.60
2022-10-12T18:20:16.068Z,5.55
2022-10-12T18:25:47.624Z,6.80
2022-10-12T18:31:24.270Z,5.32
2022-10-12T18:36:55.533Z,5.00
2022-10-12T18:42:26.496Z,6.43
2022-10-12T18:47:58.053Z,5.10
2022-10-12T18:53:29.042Z,6.22
2022-10-12T18:59:00.994Z,5.85
2022-10-12T19:04:32.094Z,5.10
2022-10-12T19:10:07.361Z,5.03
2022-10-12T19:15:38.677Z,4.15
2022-10-12T19:21:13.005Z,5.13
2022-10-12T19:26:44.837Z,5.38
2022-10-12T19:32:16.050Z,6.68
2022-10-12T19:37:47.660Z,5.43
2022-10-12T19:43:18.843Z,8.15
2022-10-12T19:48:52.069Z,6.03
2022-10-12T19:54:23.294Z,5.43
2022-10-12T19:59:54.462Z,4.93
2022-10-12T20:05:25.718Z,7.10
2022-10-12T20:10:56.523Z,5.47
2022-10-12T20:16:32.435Z,5.80
2022-10-12T20:22:04.945Z,6.88
2022-10-12T20:27:36.723Z,6.45
2022-10-12T20:33:08.487Z,6.28
2022-10-12T20:38:40.700Z,4.25
2022-10-12T20:44:12.678Z,6.10
2022-10-12T20:49:44.540Z,5.63
2022-10-12T20:55:15.887Z,5.65
2022-10-12T21:00:47.058Z,5.93
2022-10-12T21:06:19.520Z,5.32
2022-10-12T21:11:51.014Z,6.25
2022-10-12T21:17:22.159Z,5.60
2022-10-12T21:22:53.135Z,5.57
2022-10-12T21:28:24.421Z,7.45
2022-10-12T21:33:55.680Z,5.97
2022-10-12T21:39:26.873Z,4.65
2022-10-12T21:44:57.580Z,6.18
2022-10-12T21:50:28.720Z,4.60
2022-10-12T21:55:59.893Z,5.82
2022-10-12T22:01:37.148Z,5.25
2022-10-12T22:07:08.245Z,6.07
2022-10-12T22:12:39.530Z,5.40
2022-10-12T22:18:10.926Z,7.35
2022-10-12T22:23:43.641Z,5.55
2022-10-12T22:29:14.990Z,4.65
2022-10-12T22:34:46.253Z,6.50
2022-10-12T22:40:17.568Z,5.43
2022-10-12T22:45:48.512Z,5.47
2022-10-12T22:51:39.656Z,6.72
2022-10-12T22:57:11.013Z,4.65
2022-10-12T23:02:41.847Z,5.75
2022-10-12T23:08:15.218Z,5.32
2022-10-12T23:13:47.361Z,6.20
2022-10-12T23:19:18.740Z,5.22
2022-10-12T23:24:49.822Z,8.10
2022-10-12T23:30:21.623Z,6.68
2022-10-12T23:35:59.080Z,4.90
2022-10-12T23:41:30.698Z,7.05
2022-10-12T23:47:01.531Z,6.18
2022-10-12T23:52:32.275Z,6.03
2022-10-12T23:58:03.626Z,5.05
